sensor_id;sensor_type;location;lat;lon;timestamp;P1;P2;P0
49708;PMS5003;35601;55.902;13.606;2022-12-18T00:00:43;57;48;
49708;PMS5003;35601;55.902;13.606;2022-12-18T00:03:08;51;45;
49708;PMS5003;35601;55.902;13.606;2022-12-18T00:05:34;49;42;
49708;PMS5003;35601;55.902;13.606;2022-12-18T00:08:00;57;48;
49708;PMS5003;35601;55.902;13.606;2022-12-18T00:10:25;51;46;
49708;PMS5003;35601;55.902;13.606;2022-12-18T00:12:51;51;42;
49708;PMS5003;35601;55.902;13.606;2022-12-18T00:15:16;55;40;
49708;PMS5003;35601;55.902;13.606;2022-12-18T00:17:42;49;40;
49708;PMS5003;35601;55.902;13.606;2022-12-18T00:20:08;52;43;
49708;PMS5003;35601;55.902;13.606;2022-12-18T00:22:33;45;37;
49708;PMS5003;35601;55.902;13.606;2022-12-18T00:24:58;46;37;
49708;PMS5003;35601;55.902;13.606;2022-12-18T00:27:24;53;40;
49708;PMS5003;35601;55.902;13.606;2022-12-18T00:29:49;40;32;
49708;PMS5003;35601;55.902;13.606;2022-12-18T00:32:15;51;40;
49708;PMS5003;35601;55.902;13.606;2022-12-18T00:34:40;48;44;
49708;PMS5003;35601;55.902;13.606;2022-12-18T00:37:06;49;39;
49708;PMS5003;35601;55.902;13.606;2022-12-18T00:39:31;51;38;
49708;PMS5003;35601;55.902;13.606;2022-12-18T00:41:57;41;38;
49708;PMS5003;35601;55.902;13.606;2022-12-18T00:44:23;49;40;
49708;PMS5003;35601;55.902;13.606;2022-12-18T00:46:48;60;44;
49708;PMS5003;35601;55.902;13.606;2022-12-18T00:49:14;40;32;
49708;PMS5003;35601;55.902;13.606;2022-12-18T00:51:39;51;41;
49708;PMS5003;35601;55.902;13.606;2022-12-18T00:54:05;55;40;
49708;PMS5003;35601;55.902;13.606;2022-12-18T00:56:30;60;46;
49708;PMS5003;35601;55.902;13.606;2022-12-18T00:58:56;48;38;
49708;PMS5003;35601;55.902;13.606;2022-12-18T01:01:21;50;40;
49708;PMS5003;35601;55.902;13.606;2022-12-18T01:03:47;51;42;
49708;PMS5003;35601;55.902;13.606;2022-12-18T01:06:13;56;38;
49708;PMS5003;35601;55.902;13.606;2022-12-18T01:08:38;42;40;
49708;PMS5003;35601;55.902;13.606;2022-12-18T01:11:06;47;40;
49708;PMS5003;35601;55.902;13.606;2022-12-18T01:13:28;43;36;
49708;PMS5003;35601;55.902;13.606;2022-12-18T01:15:54;56;38;
49708;PMS5003;35601;55.902;13.606;2022-12-18T01:18:19;50;37;
49708;PMS5003;35601;55.902;13.606;2022-12-18T01:20:45;32;29;
49708;PMS5003;35601;55.902;13.606;2022-12-18T01:23:11;46;37;
49708;PMS5003;35601;55.902;13.606;2022-12-18T01:25:36;55;45;
49708;PMS5003;35601;55.902;13.606;2022-12-18T01:28:02;52;45;
49708;PMS5003;35601;55.902;13.606;2022-12-18T01:30:27;37;30;
49708;PMS5003;35601;55.902;13.606;2022-12-18T01:32:52;38;34;
49708;PMS5003;35601;55.902;13.606;2022-12-18T01:35:18;41;38;
49708;PMS5003;35601;55.902;13.606;2022-12-18T01:37:44;50;35;
49708;PMS5003;35601;55.902;13.606;2022-12-18T01:40:10;42;32;
49708;PMS5003;35601;55.902;13.606;2022-12-18T01:42:35;43;36;
49708;PMS5003;35601;55.902;13.606;2022-12-18T01:45:01;36;29;
49708;PMS5003;35601;55.902;13.606;2022-12-18T01:47:26;33;31;
49708;PMS5003;35601;55.902;13.606;2022-12-18T01:49:51;35;29;
49708;PMS5003;35601;55.902;13.606;2022-12-18T01:52:16;46;31;
49708;PMS5003;35601;55.902;13.606;2022-12-18T01:54:42;42;29;
49708;PMS5003;35601;55.902;13.606;2022-12-18T01:57:07;33;27;
49708;PMS5003;35601;55.902;13.606;2022-12-18T01:59:32;28;22;
49708;PMS5003;35601;55.902;13.606;2022-12-18T02:01:58;28;26;
49708;PMS5003;35601;55.902;13.606;2022-12-18T02:04:24;37;31;
49708;PMS5003;35601;55.902;13.606;2022-12-18T02:06:50;29;28;
49708;PMS5003;35601;55.902;13.606;2022-12-18T02:09:15;33;27;
49708;PMS5003;35601;55.902;13.606;2022-12-18T02:11:41;27;23;
49708;PMS5003;35601;55.902;13.606;2022-12-18T02:14:07;29;28;
49708;PMS5003;35601;55.902;13.606;2022-12-18T02:16:33;22;22;
49708;PMS5003;35601;55.902;13.606;2022-12-18T02:18:56;27;24;
49708;PMS5003;35601;55.902;13.606;2022-12-18T02:21:23;35;30;
49708;PMS5003;35601;55.902;13.606;2022-12-18T02:23:47;25;23;
49708;PMS5003;35601;55.902;13.606;2022-12-18T02:26:15;32;27;
49708;PMS5003;35601;55.902;13.606;2022-12-18T02:28:38;31;27;
49708;PMS5003;35601;55.902;13.606;2022-12-18T02:31:04;28;26;
49708;PMS5003;35601;55.902;13.606;2022-12-18T02:33:28;32;27;
49708;PMS5003;35601;55.902;13.606;2022-12-18T02:35:53;24;22;
49708;PMS5003;35601;55.902;13.606;2022-12-18T02:38:19;32;28;
49708;PMS5003;35601;55.902;13.606;2022-12-18T02:40:45;38;29;
49708;PMS5003;35601;55.902;13.606;2022-12-18T02:43:11;23;23;
49708;PMS5003;35601;55.902;13.606;2022-12-18T02:45:37;28;22;
49708;PMS5003;35601;55.902;13.606;2022-12-18T02:48:01;28;24;
49708;PMS5003;35601;55.902;13.606;2022-12-18T02:50:29;29;26;
49708;PMS5003;35601;55.902;13.606;2022-12-18T02:52:55;26;22;
49708;PMS5003;35601;55.902;13.606;2022-12-18T02:55:20;33;23;
49708;PMS5003;35601;55.902;13.606;2022-12-18T02:57:44;24;22;
49708;PMS5003;35601;55.902;13.606;2022-12-18T03:00:10;25;21;
49708;PMS5003;35601;55.902;13.606;2022-12-18T03:02:36;32;23;
49708;PMS5003;35601;55.902;13.606;2022-12-18T03:05:01;43;30;
49708;PMS5003;35601;55.902;13.606;2022-12-18T03:07:28;40;30;
49708;PMS5003;35601;55.902;13.606;2022-12-18T03:09:50;32;29;
49708;PMS5003;35601;55.902;13.606;2022-12-18T03:12:17;41;27;
49708;PMS5003;35601;55.902;13.606;2022-12-18T03:14:40;35;29;
49708;PMS5003;35601;55.902;13.606;2022-12-18T03:17:07;29;19;
49708;PMS5003;35601;55.902;13.606;2022-12-18T03:19:32;29;25;
49708;PMS5003;35601;55.902;13.606;2022-12-18T03:21:57;37;33;
49708;PMS5003;35601;55.902;13.606;2022-12-18T03:24:22;35;28;
49708;PMS5003;35601;55.902;13.606;2022-12-18T03:26:48;31;26;
49708;PMS5003;35601;55.902;13.606;2022-12-18T03:29:14;35;30;
49708;PMS5003;35601;55.902;13.606;2022-12-18T03:31:39;29;26;
49708;PMS5003;35601;55.902;13.606;2022-12-18T03:34:04;37;27;
49708;PMS5003;35601;55.902;13.606;2022-12-18T03:36:30;35;27;
49708;PMS5003;35601;55.902;13.606;2022-12-18T03:38:56;31;27;
49708;PMS5003;35601;55.902;13.606;2022-12-18T03:41:23;27;26;
49708;PMS5003;35601;55.902;13.606;2022-12-18T03:43:49;36;26;
49708;PMS5003;35601;55.902;13.606;2022-12-18T03:46:13;32;30;
49708;PMS5003;35601;55.902;13.606;2022-12-18T03:48:38;34;24;
49708;PMS5003;35601;55.902;13.606;2022-12-18T03:51:05;34;25;
49708;PMS5003;35601;55.902;13.606;2022-12-18T03:53:31;34;27;
49708;PMS5003;35601;55.902;13.606;2022-12-18T03:55:54;34;29;
49708;PMS5003;35601;55.902;13.606;2022-12-18T03:58:20;24;20;
49708;PMS5003;35601;55.902;13.606;2022-12-18T04:00:45;28;25;
49708;PMS5003;35601;55.902;13.606;2022-12-18T04:03:10;35;28;
49708;PMS5003;35601;55.902;13.606;2022-12-18T04:05:35;31;23;
49708;PMS5003;35601;55.902;13.606;2022-12-18T04:08:00;40;25;
49708;PMS5003;35601;55.902;13.606;2022-12-18T04:10:26;24;19;
49708;PMS5003;35601;55.902;13.606;2022-12-18T04:12:51;25;21;
49708;PMS5003;35601;55.902;13.606;2022-12-18T04:15:17;20;19;
49708;PMS5003;35601;55.902;13.606;2022-12-18T04:17:46;31;27;
49708;PMS5003;35601;55.902;13.606;2022-12-18T04:20:08;24;23;
49708;PMS5003;35601;55.902;13.606;2022-12-18T04:22:33;24;20;
49708;PMS5003;35601;55.902;13.606;2022-12-18T04:24:58;21;16;
49708;PMS5003;35601;55.902;13.606;2022-12-18T04:27:24;25;22;
49708;PMS5003;35601;55.902;13.606;2022-12-18T04:29:49;15;14;
49708;PMS5003;35601;55.902;13.606;2022-12-18T04:32:15;24;23;
49708;PMS5003;35601;55.902;13.606;2022-12-18T04:34:40;26;20;
49708;PMS5003;35601;55.902;13.606;2022-12-18T04:37:05;25;19;
49708;PMS5003;35601;55.902;13.606;2022-12-18T04:39:31;33;25;
49708;PMS5003;35601;55.902;13.606;2022-12-18T04:41:56;29;24;
49708;PMS5003;35601;55.902;13.606;2022-12-18T04:44:21;23;18;
49708;PMS5003;35601;55.902;13.606;2022-12-18T04:46:47;23;21;
49708;PMS5003;35601;55.902;13.606;2022-12-18T04:49:12;32;24;
49708;PMS5003;35601;55.902;13.606;2022-12-18T04:51:38;36;27;
49708;PMS5003;35601;55.902;13.606;2022-12-18T04:54:03;23;18;
49708;PMS5003;35601;55.902;13.606;2022-12-18T04:56:29;15;15;
49708;PMS5003;35601;55.902;13.606;2022-12-18T04:58:54;26;21;
49708;PMS5003;35601;55.902;13.606;2022-12-18T05:01:20;29;23;
49708;PMS5003;35601;55.902;13.606;2022-12-18T05:03:45;20;19;
49708;PMS5003;35601;55.902;13.606;2022-12-18T05:06:11;26;21;
49708;PMS5003;35601;55.902;13.606;2022-12-18T05:08:37;18;18;
49708;PMS5003;35601;55.902;13.606;2022-12-18T05:11:03;27;19;
49708;PMS5003;35601;55.902;13.606;2022-12-18T05:13:28;21;16;
49708;PMS5003;35601;55.902;13.606;2022-12-18T05:15:53;20;19;
49708;PMS5003;35601;55.902;13.606;2022-12-18T05:18:18;26;20;
49708;PMS5003;35601;55.902;13.606;2022-12-18T05:20:44;23;19;
49708;PMS5003;35601;55.902;13.606;2022-12-18T05:23:10;17;14;
49708;PMS5003;35601;55.902;13.606;2022-12-18T05:25:35;25;18;
49708;PMS5003;35601;55.902;13.606;2022-12-18T05:28:01;25;20;
49708;PMS5003;35601;55.902;13.606;2022-12-18T05:30:26;22;20;
49708;PMS5003;35601;55.902;13.606;2022-12-18T05:32:52;24;21;
49708;PMS5003;35601;55.902;13.606;2022-12-18T05:35:18;19;17;
49708;PMS5003;35601;55.902;13.606;2022-12-18T05:37:43;20;18;
49708;PMS5003;35601;55.902;13.606;2022-12-18T05:40:09;25;18;
49708;PMS5003;35601;55.902;13.606;2022-12-18T05:42:34;16;15;
49708;PMS5003;35601;55.902;13.606;2022-12-18T05:45:00;21;19;
49708;PMS5003;35601;55.902;13.606;2022-12-18T05:47:26;18;15;
49708;PMS5003;35601;55.902;13.606;2022-12-18T05:49:51;20;16;
49708;PMS5003;35601;55.902;13.606;2022-12-18T05:52:17;22;20;
49708;PMS5003;35601;55.902;13.606;2022-12-18T05:54:43;25;19;
49708;PMS5003;35601;55.902;13.606;2022-12-18T05:57:08;24;16;
49708;PMS5003;35601;55.902;13.606;2022-12-18T05:59:34;20;16;
49708;PMS5003;35601;55.902;13.606;2022-12-18T06:01:59;22;16;
49708;PMS5003;35601;55.902;13.606;2022-12-18T06:04:26;19;12;
49708;PMS5003;35601;55.902;13.606;2022-12-18T06:06:50;21;15;
49708;PMS5003;35601;55.902;13.606;2022-12-18T06:09:16;20;18;
49708;PMS5003;35601;55.902;13.606;2022-12-18T06:11:41;27;19;
49708;PMS5003;35601;55.902;13.606;2022-12-18T06:14:06;31;19;
49708;PMS5003;35601;55.902;13.606;2022-12-18T06:16:32;22;19;
49708;PMS5003;35601;55.902;13.606;2022-12-18T06:18:57;28;22;
49708;PMS5003;35601;55.902;13.606;2022-12-18T06:21:23;26;21;
49708;PMS5003;35601;55.902;13.606;2022-12-18T06:23:48;26;20;
49708;PMS5003;35601;55.902;13.606;2022-12-18T06:26:15;26;20;
49708;PMS5003;35601;55.902;13.606;2022-12-18T06:28:39;24;20;
49708;PMS5003;35601;55.902;13.606;2022-12-18T06:31:04;21;19;
49708;PMS5003;35601;55.902;13.606;2022-12-18T06:33:30;33;25;
49708;PMS5003;35601;55.902;13.606;2022-12-18T06:35:59;22;17;
49708;PMS5003;35601;55.902;13.606;2022-12-18T06:38:21;23;16;
49708;PMS5003;35601;55.902;13.606;2022-12-18T06:40:46;25;22;
49708;PMS5003;35601;55.902;13.606;2022-12-18T06:43:12;25;21;
49708;PMS5003;35601;55.902;13.606;2022-12-18T06:45:38;20;15;
49708;PMS5003;35601;55.902;13.606;2022-12-18T06:48:03;25;20;
49708;PMS5003;35601;55.902;13.606;2022-12-18T06:50:28;26;20;
49708;PMS5003;35601;55.902;13.606;2022-12-18T06:52:54;22;15;
49708;PMS5003;35601;55.902;13.606;2022-12-18T06:55:20;26;19;
49708;PMS5003;35601;55.902;13.606;2022-12-18T06:57:45;26;15;
49708;PMS5003;35601;55.902;13.606;2022-12-18T07:00:11;24;20;
49708;PMS5003;35601;55.902;13.606;2022-12-18T07:02:36;22;17;
49708;PMS5003;35601;55.902;13.606;2022-12-18T07:05:02;27;17;
49708;PMS5003;35601;55.902;13.606;2022-12-18T07:07:28;27;15;
49708;PMS5003;35601;55.902;13.606;2022-12-18T07:09:53;17;15;
49708;PMS5003;35601;55.902;13.606;2022-12-18T07:12:18;25;21;
49708;PMS5003;35601;55.902;13.606;2022-12-18T07:14:44;27;19;
49708;PMS5003;35601;55.902;13.606;2022-12-18T07:17:10;21;17;
49708;PMS5003;35601;55.902;13.606;2022-12-18T07:19:35;27;19;
49708;PMS5003;35601;55.902;13.606;2022-12-18T07:22:01;21;20;
49708;PMS5003;35601;55.902;13.606;2022-12-18T07:24:26;31;26;
49708;PMS5003;35601;55.902;13.606;2022-12-18T07:26:52;27;20;
49708;PMS5003;35601;55.902;13.606;2022-12-18T07:29:17;22;19;
49708;PMS5003;35601;55.902;13.606;2022-12-18T07:31:42;21;14;
49708;PMS5003;35601;55.902;13.606;2022-12-18T07:34:09;22;17;
49708;PMS5003;35601;55.902;13.606;2022-12-18T07:36:33;22;19;
49708;PMS5003;35601;55.902;13.606;2022-12-18T07:38:58;26;20;
49708;PMS5003;35601;55.902;13.606;2022-12-18T07:41:24;21;19;
49708;PMS5003;35601;55.902;13.606;2022-12-18T07:43:49;25;19;
49708;PMS5003;35601;55.902;13.606;2022-12-18T07:46:15;15;14;
49708;PMS5003;35601;55.902;13.606;2022-12-18T07:48:40;20;19;
49708;PMS5003;35601;55.902;13.606;2022-12-18T07:51:06;28;21;
49708;PMS5003;35601;55.902;13.606;2022-12-18T07:53:31;29;26;
49708;PMS5003;35601;55.902;13.606;2022-12-18T07:55:57;26;26;
49708;PMS5003;35601;55.902;13.606;2022-12-18T07:58:22;38;27;
49708;PMS5003;35601;55.902;13.606;2022-12-18T08:00:48;32;21;
49708;PMS5003;35601;55.902;13.606;2022-12-18T08:03:14;29;22;
49708;PMS5003;35601;55.902;13.606;2022-12-18T08:05:39;36;26;
49708;PMS5003;35601;55.902;13.606;2022-12-18T08:08:05;27;22;
49708;PMS5003;35601;55.902;13.606;2022-12-18T08:10:30;31;24;
49708;PMS5003;35601;55.902;13.606;2022-12-18T08:12:55;29;23;
49708;PMS5003;35601;55.902;13.606;2022-12-18T08:15:21;20;18;
49708;PMS5003;35601;55.902;13.606;2022-12-18T08:17:46;22;17;
49708;PMS5003;35601;55.902;13.606;2022-12-18T08:20:12;25;22;
49708;PMS5003;35601;55.902;13.606;2022-12-18T08:22:37;25;23;
49708;PMS5003;35601;55.902;13.606;2022-12-18T08:25:02;28;21;
49708;PMS5003;35601;55.902;13.606;2022-12-18T08:27:28;21;19;
49708;PMS5003;35601;55.902;13.606;2022-12-18T08:29:53;28;22;
49708;PMS5003;35601;55.902;13.606;2022-12-18T08:32:18;27;21;
49708;PMS5003;35601;55.902;13.606;2022-12-18T08:34:44;34;23;
49708;PMS5003;35601;55.902;13.606;2022-12-18T08:37:09;23;22;
49708;PMS5003;35601;55.902;13.606;2022-12-18T08:39:34;24;22;
49708;PMS5003;35601;55.902;13.606;2022-12-18T08:42:00;24;20;
49708;PMS5003;35601;55.902;13.606;2022-12-18T08:44:25;27;23;
49708;PMS5003;35601;55.902;13.606;2022-12-18T08:46:50;31;21;
49708;PMS5003;35601;55.902;13.606;2022-12-18T08:49:15;23;20;
49708;PMS5003;35601;55.902;13.606;2022-12-18T08:51:41;22;21;
49708;PMS5003;35601;55.902;13.606;2022-12-18T08:54:07;21;17;
49708;PMS5003;35601;55.902;13.606;2022-12-18T08:56:32;24;20;
49708;PMS5003;35601;55.902;13.606;2022-12-18T08:58:58;29;22;
49708;PMS5003;35601;55.902;13.606;2022-12-18T09:01:24;29;23;
49708;PMS5003;35601;55.902;13.606;2022-12-18T09:03:49;22;16;
49708;PMS5003;35601;55.902;13.606;2022-12-18T09:06:14;25;23;
49708;PMS5003;35601;55.902;13.606;2022-12-18T09:08:40;25;19;
49708;PMS5003;35601;55.902;13.606;2022-12-18T09:11:09;27;18;
49708;PMS5003;35601;55.902;13.606;2022-12-18T09:13:31;19;18;
49708;PMS5003;35601;55.902;13.606;2022-12-18T09:15:56;22;17;
49708;PMS5003;35601;55.902;13.606;2022-12-18T09:18:22;19;17;
49708;PMS5003;35601;55.902;13.606;2022-12-18T09:20:47;21;18;
49708;PMS5003;35601;55.902;13.606;2022-12-18T09:23:13;23;18;
49708;PMS5003;35601;55.902;13.606;2022-12-18T09:25:38;32;23;
49708;PMS5003;35601;55.902;13.606;2022-12-18T09:28:05;19;15;
49708;PMS5003;35601;55.902;13.606;2022-12-18T09:30:29;25;23;
49708;PMS5003;35601;55.902;13.606;2022-12-18T09:32:54;27;20;
49708;PMS5003;35601;55.902;13.606;2022-12-18T09:35:19;24;17;
49708;PMS5003;35601;55.902;13.606;2022-12-18T09:37:45;24;16;
49708;PMS5003;35601;55.902;13.606;2022-12-18T09:40:13;23;18;
49708;PMS5003;35601;55.902;13.606;2022-12-18T09:42:36;19;17;
49708;PMS5003;35601;55.902;13.606;2022-12-18T09:45:02;22;17;
49708;PMS5003;35601;55.902;13.606;2022-12-18T09:47:27;24;17;
49708;PMS5003;35601;55.902;13.606;2022-12-18T09:49:52;18;17;
49708;PMS5003;35601;55.902;13.606;2022-12-18T09:52:19;22;16;
49708;PMS5003;35601;55.902;13.606;2022-12-18T09:54:44;22;17;
49708;PMS5003;35601;55.902;13.606;2022-12-18T09:57:11;22;17;
49708;PMS5003;35601;55.902;13.606;2022-12-18T09:59:34;20;17;
49708;PMS5003;35601;55.902;13.606;2022-12-18T10:01:58;13;11;
49708;PMS5003;35601;55.902;13.606;2022-12-18T10:04:24;18;13;
49708;PMS5003;35601;55.902;13.606;2022-12-18T10:06:51;19;15;
49708;PMS5003;35601;55.902;13.606;2022-12-18T10:09:16;18;15;
49708;PMS5003;35601;55.902;13.606;2022-12-18T10:11:40;16;13;
49708;PMS5003;35601;55.902;13.606;2022-12-18T10:14:06;19;14;
49708;PMS5003;35601;55.902;13.606;2022-12-18T10:16:34;19;18;
49708;PMS5003;35601;55.902;13.606;2022-12-18T10:18:59;23;16;
49708;PMS5003;35601;55.902;13.606;2022-12-18T10:21:23;30;20;
49708;PMS5003;35601;55.902;13.606;2022-12-18T10:23:48;11;11;
49708;PMS5003;35601;55.902;13.606;2022-12-18T10:26:12;21;15;
49708;PMS5003;35601;55.902;13.606;2022-12-18T10:28:38;26;17;
49708;PMS5003;35601;55.902;13.606;2022-12-18T10:31:04;22;18;
49708;PMS5003;35601;55.902;13.606;2022-12-18T10:33:29;23;14;
49708;PMS5003;35601;55.902;13.606;2022-12-18T10:35:53;11;10;
49708;PMS5003;35601;55.902;13.606;2022-12-18T10:38:21;15;15;
49708;PMS5003;35601;55.902;13.606;2022-12-18T10:40:49;23;17;
49708;PMS5003;35601;55.902;13.606;2022-12-18T10:43:11;14;11;
49708;PMS5003;35601;55.902;13.606;2022-12-18T10:45:36;21;16;
49708;PMS5003;35601;55.902;13.606;2022-12-18T10:48:01;23;15;
49708;PMS5003;35601;55.902;13.606;2022-12-18T10:50:28;14;14;
49708;PMS5003;35601;55.902;13.606;2022-12-18T10:52:53;22;16;
49708;PMS5003;35601;55.902;13.606;2022-12-18T10:55:17;22;15;
49708;PMS5003;35601;55.902;13.606;2022-12-18T10:57:42;16;12;
49708;PMS5003;35601;55.902;13.606;2022-12-18T11:02:33;23;15;
49708;PMS5003;35601;55.902;13.606;2022-12-18T11:04:58;18;15;
49708;PMS5003;35601;55.902;13.606;2022-12-18T11:07:23;19;13;
49708;PMS5003;35601;55.902;13.606;2022-12-18T11:12:15;15;15;
49708;PMS5003;35601;55.902;13.606;2022-12-18T11:14:42;19;17;
49708;PMS5003;35601;55.902;13.606;2022-12-18T11:17:16;19;14;
49708;PMS5003;35601;55.902;13.606;2022-12-18T11:19:32;21;17;
49708;PMS5003;35601;55.902;13.606;2022-12-18T11:21:56;17;16;
49708;PMS5003;35601;55.902;13.606;2022-12-18T11:24:22;18;13;
49708;PMS5003;35601;55.902;13.606;2022-12-18T11:26:46;18;16;
49708;PMS5003;35601;55.902;13.606;2022-12-18T11:29:15;16;16;
49708;PMS5003;35601;55.902;13.606;2022-12-18T11:31:36;17;17;
49708;PMS5003;35601;55.902;13.606;2022-12-18T11:34:03;22;18;
49708;PMS5003;35601;55.902;13.606;2022-12-18T11:36:29;24;18;
49708;PMS5003;35601;55.902;13.606;2022-12-18T11:38:53;17;16;
49708;PMS5003;35601;55.902;13.606;2022-12-18T11:41:20;14;13;
49708;PMS5003;35601;55.902;13.606;2022-12-18T11:43:45;17;13;
49708;PMS5003;35601;55.902;13.606;2022-12-18T11:46:10;14;11;
49708;PMS5003;35601;55.902;13.606;2022-12-18T11:48:36;18;11;
49708;PMS5003;35601;55.902;13.606;2022-12-18T11:51:00;12;12;
49708;PMS5003;35601;55.902;13.606;2022-12-18T11:53:26;13;12;
49708;PMS5003;35601;55.902;13.606;2022-12-18T11:55:54;17;14;
49708;PMS5003;35601;55.902;13.606;2022-12-18T11:58:18;12;11;
49708;PMS5003;35601;55.902;13.606;2022-12-18T12:00:42;16;12;
49708;PMS5003;35601;55.902;13.606;2022-12-18T12:03:11;21;11;
49708;PMS5003;35601;55.902;13.606;2022-12-18T12:05:36;21;10;
49708;PMS5003;35601;55.902;13.606;2022-12-18T12:07:58;18;11;
49708;PMS5003;35601;55.902;13.606;2022-12-18T12:10:26;16;10;
49708;PMS5003;35601;55.902;13.606;2022-12-18T12:12:52;21;16;
49708;PMS5003;35601;55.902;13.606;2022-12-18T12:15:17;17;15;
49708;PMS5003;35601;55.902;13.606;2022-12-18T12:17:41;16;12;
49708;PMS5003;35601;55.902;13.606;2022-12-18T12:20:08;12;10;
49708;PMS5003;35601;55.902;13.606;2022-12-18T12:22:31;12;11;
49708;PMS5003;35601;55.902;13.606;2022-12-18T12:25:01;16;11;
49708;PMS5003;35601;55.902;13.606;2022-12-18T12:27:21;12;11;
49708;PMS5003;35601;55.902;13.606;2022-12-18T12:29:47;15;13;
49708;PMS5003;35601;55.902;13.606;2022-12-18T12:32:15;16;12;
49708;PMS5003;35601;55.902;13.606;2022-12-18T12:34:38;15;10;
49708;PMS5003;35601;55.902;13.606;2022-12-18T12:37:07;17;12;
49708;PMS5003;35601;55.902;13.606;2022-12-18T12:39:28;18;13;
49708;PMS5003;35601;55.902;13.606;2022-12-18T12:41:53;15;13;
49708;PMS5003;35601;55.902;13.606;2022-12-18T12:44:19;15;12;
49708;PMS5003;35601;55.902;13.606;2022-12-18T12:46:43;13;12;
49708;PMS5003;35601;55.902;13.606;2022-12-18T12:49:10;13;11;
49708;PMS5003;35601;55.902;13.606;2022-12-18T12:51:35;24;17;
49708;PMS5003;35601;55.902;13.606;2022-12-18T12:54:00;11;9;
49708;PMS5003;35601;55.902;13.606;2022-12-18T12:56:26;15;13;
49708;PMS5003;35601;55.902;13.606;2022-12-18T12:58:54;11;10;
49708;PMS5003;35601;55.902;13.606;2022-12-18T13:01:18;17;11;
49708;PMS5003;35601;55.902;13.606;2022-12-18T13:03:43;17;12;
49708;PMS5003;35601;55.902;13.606;2022-12-18T13:06:08;12;9;
49708;PMS5003;35601;55.902;13.606;2022-12-18T13:08:34;16;10;
49708;PMS5003;35601;55.902;13.606;2022-12-18T13:10:57;12;12;
49708;PMS5003;35601;55.902;13.606;2022-12-18T13:13:22;14;14;
49708;PMS5003;35601;55.902;13.606;2022-12-18T13:15:48;12;12;
49708;PMS5003;35601;55.902;13.606;2022-12-18T13:18:14;19;15;
49708;PMS5003;35601;55.902;13.606;2022-12-18T13:20:38;15;9;
49708;PMS5003;35601;55.902;13.606;2022-12-18T13:25:29;16;14;
49708;PMS5003;35601;55.902;13.606;2022-12-18T13:27:59;12;12;
49708;PMS5003;35601;55.902;13.606;2022-12-18T13:32:44;14;11;
49708;PMS5003;35601;55.902;13.606;2022-12-18T13:37:42;18;12;
49708;PMS5003;35601;55.902;13.606;2022-12-18T13:40:01;20;17;
49708;PMS5003;35601;55.902;13.606;2022-12-18T13:42:37;14;11;
49708;PMS5003;35601;55.902;13.606;2022-12-18T13:44:51;16;14;
49708;PMS5003;35601;55.902;13.606;2022-12-18T13:49:43;18;10;
49708;PMS5003;35601;55.902;13.606;2022-12-18T13:54:33;17;12;
49708;PMS5003;35601;55.902;13.606;2022-12-18T13:56:58;14;14;
49708;PMS5003;35601;55.902;13.606;2022-12-18T13:59:24;15;11;
49708;PMS5003;35601;55.902;13.606;2022-12-18T14:01:51;12;10;
49708;PMS5003;35601;55.902;13.606;2022-12-18T14:04:18;18;14;
49708;PMS5003;35601;55.902;13.606;2022-12-18T14:06:40;21;19;
49708;PMS5003;35601;55.902;13.606;2022-12-18T14:09:05;18;15;
49708;PMS5003;35601;55.902;13.606;2022-12-18T14:11:31;14;14;
49708;PMS5003;35601;55.902;13.606;2022-12-18T14:13:56;17;15;
49708;PMS5003;35601;55.902;13.606;2022-12-18T14:16:22;21;17;
49708;PMS5003;35601;55.902;13.606;2022-12-18T14:18:48;24;15;
49708;PMS5003;35601;55.902;13.606;2022-12-18T14:21:17;20;16;
49708;PMS5003;35601;55.902;13.606;2022-12-18T14:23:40;20;17;
49708;PMS5003;35601;55.902;13.606;2022-12-18T14:28:30;18;16;
49708;PMS5003;35601;55.902;13.606;2022-12-18T14:30:55;18;16;
49708;PMS5003;35601;55.902;13.606;2022-12-18T14:33:22;23;15;
49708;PMS5003;35601;55.902;13.606;2022-12-18T14:35:52;22;17;
49708;PMS5003;35601;55.902;13.606;2022-12-18T14:38:18;16;15;
49708;PMS5003;35601;55.902;13.606;2022-12-18T14:40:37;16;11;
49708;PMS5003;35601;55.902;13.606;2022-12-18T14:43:02;19;14;
49708;PMS5003;35601;55.902;13.606;2022-12-18T14:45:32;15;11;
49708;PMS5003;35601;55.902;13.606;2022-12-18T14:47:53;21;19;
49708;PMS5003;35601;55.902;13.606;2022-12-18T14:50:19;26;17;
49708;PMS5003;35601;55.902;13.606;2022-12-18T14:52:44;29;26;
49708;PMS5003;35601;55.902;13.606;2022-12-18T14:55:14;18;15;
49708;PMS5003;35601;55.902;13.606;2022-12-18T14:57:36;18;14;
49708;PMS5003;35601;55.902;13.606;2022-12-18T15:00:03;16;13;
49708;PMS5003;35601;55.902;13.606;2022-12-18T15:02:27;15;11;
49708;PMS5003;35601;55.902;13.606;2022-12-18T15:07:19;14;11;
49708;PMS5003;35601;55.902;13.606;2022-12-18T15:09:43;13;9;
49708;PMS5003;35601;55.902;13.606;2022-12-18T15:14:35;13;11;
49708;PMS5003;35601;55.902;13.606;2022-12-18T15:17:00;16;14;
49708;PMS5003;35601;55.902;13.606;2022-12-18T15:19:28;16;14;
49708;PMS5003;35601;55.902;13.606;2022-12-18T15:21:50;12;10;
49708;PMS5003;35601;55.902;13.606;2022-12-18T15:24:17;11;10;
49708;PMS5003;35601;55.902;13.606;2022-12-18T15:26:42;16;14;
49708;PMS5003;35601;55.902;13.606;2022-12-18T15:31:32;15;11;
49708;PMS5003;35601;55.902;13.606;2022-12-18T15:34:05;13;10;
49708;PMS5003;35601;55.902;13.606;2022-12-18T15:36:23;19;10;
49708;PMS5003;35601;55.902;13.606;2022-12-18T15:38:48;16;16;
49708;PMS5003;35601;55.902;13.606;2022-12-18T15:41:13;18;15;
49708;PMS5003;35601;55.902;13.606;2022-12-18T15:43:38;12;12;
49708;PMS5003;35601;55.902;13.606;2022-12-18T15:46:05;19;13;
49708;PMS5003;35601;55.902;13.606;2022-12-18T15:48:31;22;12;
49708;PMS5003;35601;55.902;13.606;2022-12-18T15:50:56;15;12;
49708;PMS5003;35601;55.902;13.606;2022-12-18T15:53:21;15;12;
49708;PMS5003;35601;55.902;13.606;2022-12-18T15:55:46;13;12;
49708;PMS5003;35601;55.902;13.606;2022-12-18T15:58:11;22;12;
49708;PMS5003;35601;55.902;13.606;2022-12-18T16:00:38;16;13;
49708;PMS5003;35601;55.902;13.606;2022-12-18T16:03:02;20;14;
49708;PMS5003;35601;55.902;13.606;2022-12-18T16:05:28;15;12;
49708;PMS5003;35601;55.902;13.606;2022-12-18T16:07:53;12;10;
49708;PMS5003;35601;55.902;13.606;2022-12-18T16:10:19;16;14;
49708;PMS5003;35601;55.902;13.606;2022-12-18T16:12:44;21;14;
49708;PMS5003;35601;55.902;13.606;2022-12-18T16:15:10;15;14;